Time;durP1;ratioP1;P1;durP2;ratioP2;P2;SDS_P1;SDS_P2;PMS_P1;PMS_P2;Temp;Humidity;BMP_temperature;BMP_pressure;BME280_temperature;BME280_humidity;BME280_pressure;Samples;Min_cycle;Max_cycle;Signal;HPM_P1;HPM_P2
2023/12/16 00:01:17;;;;;;;30.43;9.47;;;;;;;6.70;100.00;102825.13;5037994;28;20055;-74
2023/12/16 00:03:42;;;;;;;35.20;10.77;;;;;;;6.59;100.00;102817.75;5052626;28;20040;-74
2023/12/16 00:06:08;;;;;;;39.37;11.60;;;;;;;6.61;100.00;102809.72;5039160;28;20025;-74
2023/12/16 00:08:33;;;;;;;37.95;10.40;;;;;;;6.59;100.00;102806.28;5050203;28;20284;-75
2023/12/16 00:10:58;;;;;;;39.70;10.47;;;;;;;6.55;100.00;102811.78;5045854;28;20029;-74
2023/12/16 00:13:24;;;;;;;37.43;10.23;;;;;;;6.71;100.00;102814.41;5046794;28;20117;-74
2023/12/16 00:15:49;;;;;;;45.67;11.55;;;;;;;6.66;100.00;102812.97;5046797;28;20144;-75
2023/12/16 00:18:15;;;;;;;33.42;10.48;;;;;;;6.78;100.00;102827.34;5045986;28;20102;-75
2023/12/16 00:20:40;;;;;;;38.37;11.10;;;;;;;6.72;100.00;102824.09;5038459;28;20048;-74
2023/12/16 00:23:05;;;;;;;41.53;11.50;;;;;;;6.80;100.00;102826.31;5045328;28;20315;-74
2023/12/16 00:25:31;;;;;;;33.50;9.63;;;;;;;6.79;100.00;102827.28;5045592;28;20044;-75
2023/12/16 00:27:56;;;;;;;42.10;13.27;;;;;;;6.66;100.00;102829.75;5044805;28;20040;-75
2023/12/16 00:30:21;;;;;;;40.37;12.70;;;;;;;6.81;100.00;102838.63;5044999;28;20684;-75
2023/12/16 00:32:47;;;;;;;38.93;12.00;;;;;;;6.74;100.00;102834.59;5061411;28;20311;-75
2023/12/16 00:35:12;;;;;;;33.00;10.97;;;;;;;6.80;100.00;102826.31;5044839;28;20287;-75
2023/12/16 00:37:37;;;;;;;40.67;11.90;;;;;;;6.82;100.00;102823.56;5055734;28;20159;-74
2023/12/16 00:40:03;;;;;;;47.30;14.50;;;;;;;6.71;100.00;102814.41;5016320;28;20030;-74
2023/12/16 00:42:29;;;;;;;46.42;12.10;;;;;;;6.80;100.00;102818.34;5043685;28;20029;-75
2023/12/16 00:44:57;;;;;;;41.27;13.30;;;;;;;6.68;100.00;102813.75;5041167;28;20037;-74
2023/12/16 00:47:23;;;;;;;35.67;12.48;;;;;;;6.75;100.00;102818.59;5037672;28;20276;-75
2023/12/16 00:49:48;;;;;;;44.57;13.47;;;;;;;6.72;100.00;102818.78;5040329;28;20510;-74
2023/12/16 00:52:14;;;;;;;49.88;15.07;;;;;;;6.78;100.00;102822.88;5042711;28;20071;-74
2023/12/16 00:54:39;;;;;;;40.38;13.35;;;;;;;6.71;100.00;102817.06;5045357;28;20072;-75
2023/12/16 00:57:04;;;;;;;35.30;12.63;;;;;;;6.84;100.00;102833.16;5044534;28;20044;-74
2023/12/16 00:59:30;;;;;;;38.63;13.30;;;;;;;6.79;100.00;102829.03;5052401;28;20113;-75
2023/12/16 01:01:55;;;;;;;43.33;15.30;;;;;;;6.79;100.00;102829.94;5045454;28;20037;-74
2023/12/16 01:04:20;;;;;;;49.57;14.50;;;;;;;6.74;100.00;102824.88;5044243;28;20491;-75
2023/12/16 01:06:46;;;;;;;44.07;16.80;;;;;;;6.71;100.00;102811.75;5045516;28;20029;-75
2023/12/16 01:09:11;;;;;;;47.13;16.25;;;;;;;6.78;100.00;102812.25;5036231;28;20279;-75
2023/12/16 01:11:37;;;;;;;46.83;14.50;;;;;;;6.79;100.00;102821.06;5044233;28;20037;-74
2023/12/16 01:14:02;;;;;;;38.90;16.00;;;;;;;6.63;100.00;102814.00;5043792;28;20045;-75
2023/12/16 01:16:28;;;;;;;42.17;14.40;;;;;;;6.74;100.00;102827.53;5040636;28;20307;-74
2023/12/16 01:18:54;;;;;;;47.47;15.35;;;;;;;6.75;100.00;102829.22;5064012;28;20283;-74
2023/12/16 01:21:19;;;;;;;61.15;16.25;;;;;;;6.63;100.00;102813.16;5062278;28;20110;-75
2023/12/16 01:23:45;;;;;;;55.67;14.63;;;;;;;6.65;100.00;102820.06;5057162;28;20495;-75
2023/12/16 01:26:10;;;;;;;35.70;14.15;;;;;;;6.72;100.00;102813.47;5045229;28;20369;-74
2023/12/16 01:28:36;;;;;;;46.67;16.65;;;;;;;6.66;100.00;102813.81;5030650;28;20032;-75
2023/12/16 01:31:02;;;;;;;47.73;15.07;;;;;;;6.70;100.00;102823.31;5044428;28;20063;-75
2023/12/16 01:33:27;;;;;;;36.30;15.32;;;;;;;6.56;100.00;102812.63;5043479;28;20111;-75
2023/12/16 01:35:52;;;;;;;45.07;16.60;;;;;;;6.63;100.00;102813.16;5047693;28;20044;-75
2023/12/16 01:38:18;;;;;;;52.67;16.60;;;;;;;6.54;100.00;102793.28;5047590;28;20029;-74
2023/12/16 01:40:43;;;;;;;56.63;16.93;;;;;;;6.42;100.00;102788.66;5038683;28;20040;-74
2023/12/16 01:43:10;;;;;;;48.17;15.33;;;;;;;6.44;100.00;102800.03;5048502;28;20043;-75
2023/12/16 01:45:36;;;;;;;37.13;15.00;;;;;;;6.47;100.00;102799.88;5040088;28;20044;-74
2023/12/16 01:48:03;;;;;;;41.78;14.70;;;;;;;6.45;100.00;102788.47;5063848;28;20021;-74
2023/12/16 01:50:29;;;;;;;42.80;15.65;;;;;;;6.43;100.00;102777.94;5047197;28;20032;-74
2023/12/16 01:52:56;;;;;;;45.08;15.00;;;;;;;6.25;100.00;102748.00;5046995;28;20471;-75
2023/12/16 01:55:21;;;;;;;43.28;14.85;;;;;;;6.38;100.00;102764.09;5048588;28;20086;-74
2023/12/16 01:57:48;;;;;;;46.80;15.60;;;;;;;6.40;100.00;102771.97;5047093;28;20040;-74
2023/12/16 02:00:20;;;;;;;50.20;16.55;;;;;;;6.29;100.00;102769.91;5039664;28;20040;-74
2023/12/16 02:02:48;;;;;;;44.28;14.65;;;;;;;6.29;100.00;102777.88;5046489;28;20044;-74
2023/12/16 02:05:13;;;;;;;36.20;15.80;;;;;;;6.33;100.00;102784.72;5063790;28;20025;-75
2023/12/16 02:07:39;;;;;;;44.00;14.57;;;;;;;6.24;100.00;102770.16;5046841;28;20755;-74
2023/12/16 02:10:04;;;;;;;38.47;15.67;;;;;;;6.15;100.00;102775.97;5050495;28;20518;-74
2023/12/16 02:12:33;;;;;;;34.83;14.98;;;;;;;6.17;100.00;102791.81;5047738;28;20619;-74
2023/12/16 02:14:59;;;;;;;32.30;13.38;;;;;;;6.19;100.00;102798.75;5046574;28;20087;-74
2023/12/16 02:17:24;;;;;;;44.22;14.07;;;;;;;6.10;100.00;102786.81;5046781;28;20294;-75
2023/12/16 02:19:53;;;;;;;39.93;13.13;;;;;;;6.12;100.00;102795.56;5054693;28;20041;-74
2023/12/16 02:22:18;;;;;;;47.03;16.83;;;;;;;6.14;100.00;102808.75;5053318;28;20112;-74
2023/12/16 02:24:44;;;;;;;40.15;15.20;;;;;;;5.93;100.00;102795.66;5021957;28;20124;-74
2023/12/16 02:27:09;;;;;;;49.83;16.98;;;;;;;6.10;100.00;102815.16;5039088;28;20128;-74
2023/12/16 02:29:34;;;;;;;44.90;13.27;;;;;;;6.04;100.00;102804.84;5063542;28;20021;-74
2023/12/16 02:32:00;;;;;;;38.10;13.00;;;;;;;6.10;100.00;102809.84;5046252;28;20116;-74
2023/12/16 02:34:25;;;;;;;37.83;13.00;;;;;;;5.96;100.00;102792.03;5047847;28;20032;-74
2023/12/16 02:36:51;;;;;;;42.35;12.05;;;;;;;5.95;100.00;102802.69;5029481;28;20056;-75
2023/12/16 02:39:16;;;;;;;40.50;14.07;;;;;;;5.95;100.00;102811.53;5046045;28;20068;-76
2023/12/16 02:41:42;;;;;;;37.17;13.33;;;;;;;6.04;100.00;102815.47;5046072;28;20321;-74
2023/12/16 02:44:07;;;;;;;41.10;14.43;;;;;;;6.05;100.00;102810.09;5047593;28;20115;-74
2023/12/16 02:46:32;;;;;;;42.93;13.17;;;;;;;6.07;100.00;102804.72;5042892;28;20043;-75
2023/12/16 02:48:58;;;;;;;39.70;11.97;;;;;;;5.97;100.00;102803.47;5061800;28;20340;-75
2023/12/16 02:51:23;;;;;;;40.13;12.63;;;;;;;6.00;100.00;102800.69;5029008;28;20607;-74
2023/12/16 02:53:48;;;;;;;38.40;12.77;;;;;;;5.86;100.00;102796.94;5028370;28;20468;-74
2023/12/16 02:56:14;;;;;;;31.92;12.00;;;;;;;5.98;100.00;102818.47;5046272;28;20095;-74
2023/12/16 02:58:39;;;;;;;48.05;13.27;;;;;;;6.06;100.00;102808.28;5043497;28;20036;-74
2023/12/16 03:01:06;;;;;;;41.80;11.03;;;;;;;6.06;100.00;102803.88;5054315;28;20472;-75
2023/12/16 03:03:31;;;;;;;;;;;;;;;6.18;100.00;102812.06;5043045;28;20069;-75
2023/12/16 03:05:56;;;;;;;37.95;12.18;;;;;;;6.08;100.00;102801.13;5050225;28;19956;-75
2023/12/16 03:08:22;;;;;;;38.63;11.57;;;;;;;6.09;100.00;102794.88;5023829;28;20078;-74
2023/12/16 03:10:47;;;;;;;43.40;12.47;;;;;;;6.07;100.00;102784.34;5035963;28;20281;-75
2023/12/16 03:13:13;;;;;;;34.42;10.30;;;;;;;6.10;100.00;102793.94;5040411;28;20029;-75
2023/12/16 03:15:38;;;;;;;38.80;10.53;;;;;;;6.05;100.00;102795.97;5046652;28;20036;-74
2023/12/16 03:18:04;;;;;;;31.88;10.05;;;;;;;6.18;100.00;102807.66;5029275;28;20287;-74
2023/12/16 03:20:29;;;;;;;30.00;10.82;;;;;;;6.18;100.00;102820.03;5041622;28;20036;-75
2023/12/16 03:22:54;;;;;;;30.60;11.20;;;;;;;6.23;100.00;102818.00;5047443;28;20044;-74
2023/12/16 03:25:20;;;;;;;31.93;10.57;;;;;;;6.24;100.00;102812.59;5047019;28;20358;-74
2023/12/16 03:27:45;;;;;;;23.70;8.27;;;;;;;6.17;100.00;102795.31;5046717;28;20048;-75
2023/12/16 03:30:11;;;;;;;26.45;9.85;;;;;;;6.15;100.00;102786.56;5039581;28;20025;-74
2023/12/16 03:32:36;;;;;;;26.90;9.23;;;;;;;6.22;100.00;102798.56;5031971;28;20041;-75
2023/12/16 03:35:02;;;;;;;28.67;9.82;;;;;;;6.17;100.00;102791.81;5023746;28;20021;-75
2023/12/16 03:37:28;;;;;;;37.75;9.45;;;;;;;6.14;100.00;102790.19;5039605;28;20028;-75
2023/12/16 03:39:53;;;;;;;29.17;9.68;;;;;;;6.03;100.00;102774.84;5028286;28;20391;-75
2023/12/16 03:42:19;;;;;;;32.90;9.10;;;;;;;6.19;100.00;102788.13;5061557;28;20094;-74
2023/12/16 03:44:46;;;;;;;29.80;8.98;;;;;;;6.01;100.00;102773.22;5028374;28;20094;-74
2023/12/16 03:47:13;;;;;;;27.98;8.07;;;;;;;6.13;100.00;102799.94;5062057;22;20029;-79
2023/12/16 03:49:39;;;;;;;27.92;8.55;;;;;;;5.95;100.00;102781.50;5070528;28;20059;-80
2023/12/16 03:52:04;;;;;;;27.88;7.55;;;;;;;6.04;100.00;102794.25;5071770;28;20037;-78
2023/12/16 03:54:30;;;;;;;31.05;7.10;;;;;;;6.07;100.00;102789.66;5076662;28;20081;-78
2023/12/16 03:56:56;;;;;;;29.10;7.43;;;;;;;6.04;100.00;102781.88;5070225;28;20044;-79
2023/12/16 03:59:21;;;;;;;21.52;6.40;;;;;;;6.02;100.00;102781.09;5065111;28;20032;-79
2023/12/16 04:01:47;;;;;;;22.25;7.32;;;;;;;5.95;100.00;102770.88;5066208;28;20036;-80
2023/12/16 04:04:12;;;;;;;32.97;7.10;;;;;;;6.07;100.00;102779.03;5057971;28;20121;-79
2023/12/16 04:06:37;;;;;;;19.20;6.37;;;;;;;6.04;100.00;102773.03;5049522;28;20294;-78
2023/12/16 04:09:03;;;;;;;44.40;8.73;;;;;;;6.02;100.00;102772.28;5038388;28;20036;-79
2023/12/16 04:11:28;;;;;;;27.50;6.43;;;;;;;6.09;100.00;102778.97;5047492;28;20043;-79
2023/12/16 04:13:53;;;;;;;26.03;5.60;;;;;;;6.05;100.00;102782.72;5048339;28;20051;-80
2023/12/16 04:16:19;;;;;;;18.80;5.57;;;;;;;6.06;100.00;102792.38;5046150;28;20025;-80
2023/12/16 04:18:45;;;;;;;27.08;5.57;;;;;;;6.04;100.00;102799.56;5042912;28;20135;-77
2023/12/16 04:21:10;;;;;;;21.75;6.43;;;;;;;6.04;100.00;102786.28;5056201;28;20017;-78
2023/12/16 04:23:35;;;;;;;20.17;6.37;;;;;;;6.01;100.00;102781.16;5046236;28;20116;-80
2023/12/16 04:26:01;;;;;;;31.13;6.40;;;;;;;6.04;100.00;102789.84;5046562;28;20028;-80
2023/12/16 04:28:27;;;;;;;21.73;5.00;;;;;;;6.04;100.00;102799.56;5052415;28;20051;-79
2023/12/16 04:30:52;;;;;;;17.70;7.25;;;;;;;6.08;100.00;102801.13;5054218;28;20097;-78
2023/12/16 04:33:17;;;;;;;24.98;5.68;;;;;;;5.99;100.00;102785.69;5045860;28;20083;-80
2023/12/16 04:35:43;;;;;;;24.38;5.55;;;;;;;6.06;100.00;102802.97;5051002;28;20714;-79
2023/12/16 04:38:09;;;;;;;13.73;5.70;;;;;;;6.12;100.00;102800.00;5064800;28;20479;-80
2023/12/16 04:40:34;;;;;;;20.50;6.22;;;;;;;6.06;100.00;102782.66;5058748;28;20334;-78
2023/12/16 04:43:00;;;;;;;21.67;6.63;;;;;;;6.18;100.00;102796.16;5056835;28;20037;-77
2023/12/16 04:45:25;;;;;;;27.20;5.50;;;;;;;6.23;100.00;102788.84;5046052;28;20376;-78
2023/12/16 04:47:50;;;;;;;22.80;6.13;;;;;;;6.16;100.00;102777.69;5045666;28;20407;-79
2023/12/16 04:50:16;;;;;;;24.07;5.50;;;;;;;6.09;100.00;102757.75;5049213;28;20122;-79
2023/12/16 04:52:41;;;;;;;17.98;5.38;;;;;;;6.16;100.00;102755.59;5045872;28;20041;-79
2023/12/16 04:55:07;;;;;;;18.35;4.47;;;;;;;6.22;100.00;102748.16;5043703;28;20037;-79
2023/12/16 04:57:33;;;;;;;18.08;4.53;;;;;;;6.17;100.00;102741.41;5066705;28;20020;-79
2023/12/16 04:59:58;;;;;;;25.92;5.75;;;;;;;6.20;100.00;102746.53;5066683;28;20120;-78
2023/12/16 05:02:24;;;;;;;23.30;5.33;;;;;;;6.09;100.00;102736.53;5071319;28;20040;-80
2023/12/16 05:04:49;;;;;;;16.13;4.50;;;;;;;6.08;100.00;102722.41;5056895;28;20137;-80
2023/12/16 05:07:14;;;;;;;15.65;5.78;;;;;;;6.17;100.00;102734.31;5078975;28;20041;-78
2023/12/16 05:09:40;;;;;;;19.87;4.27;;;;;;;6.06;100.00;102723.44;5052301;28;20056;-79
2023/12/16 05:12:06;;;;;;;20.13;6.07;;;;;;;6.11;100.00;102721.38;5085388;28;20031;-77
2023/12/16 05:14:31;;;;;;;29.65;8.20;;;;;;;6.05;100.00;102704.03;5068206;28;20040;-79
2023/12/16 05:16:59;;;;;;;20.23;4.88;;;;;;;6.15;100.00;102696.41;5070366;28;20037;-80
2023/12/16 05:19:24;;;;;;;19.73;4.38;;;;;;;6.05;100.00;102674.00;5092397;28;20265;-77
2023/12/16 05:21:50;;;;;;;12.02;3.35;;;;;;;6.10;100.00;102683.41;5064973;28;20522;-78
2023/12/16 05:24:18;;;;;;;15.93;4.15;;;;;;;6.08;100.00;102673.81;5070518;28;20132;-79
2023/12/16 05:26:43;;;;;;;19.45;4.57;;;;;;;6.05;100.00;102676.66;5062023;28;20479;-78
2023/12/16 05:29:08;;;;;;;13.27;3.90;;;;;;;6.08;100.00;102676.47;5042667;28;20028;-81
2023/12/16 05:31:34;;;;;;;19.07;4.80;;;;;;;6.04;100.00;102651.06;5047973;28;20098;-80
2023/12/16 05:33:59;;;;;;;19.43;4.57;;;;;;;6.02;100.00;102650.31;5097508;28;20032;-79
2023/12/16 05:36:24;;;;;;;17.77;4.90;;;;;;;5.98;100.00;102648.78;5073469;28;20332;-78
2023/12/16 05:38:50;;;;;;;16.27;4.53;;;;;;;5.92;100.00;102648.16;5068544;28;20486;-78
2023/12/16 05:41:15;;;;;;;13.20;4.73;;;;;;;5.92;100.00;102640.19;5072900;28;20425;-78
2023/12/16 05:43:41;;;;;;;17.73;4.90;;;;;;;5.90;100.00;102649.19;5069340;28;20274;-79
2023/12/16 05:46:06;;;;;;;17.95;3.90;;;;;;;5.89;100.00;102658.06;5068769;28;20290;-79
2023/12/16 05:48:32;;;;;;;24.40;4.68;;;;;;;5.99;100.00;102664.56;5075228;28;20047;-79
2023/12/16 05:50:57;;;;;;;14.45;4.85;;;;;;;5.92;100.00;102660.53;5059919;28;20017;-78
2023/12/16 05:53:22;;;;;;;12.70;3.63;;;;;;;5.88;100.00;102636.00;5054685;28;20486;-80
2023/12/16 05:55:48;;;;;;;13.85;3.45;;;;;;;5.93;100.00;102654.28;5085921;28;20116;-77
2023/12/16 05:58:14;;;;;;;17.50;5.40;;;;;;;5.81;100.00;102639.94;5069057;28;20024;-78
2023/12/16 06:00:39;;;;;;;15.85;4.68;;;;;;;5.85;100.00;102652.09;5059618;28;20283;-78
2023/12/16 06:03:04;;;;;;;13.43;3.67;;;;;;;5.90;100.00;102647.38;5068097;28;20044;-78
2023/12/16 06:05:30;;;;;;;9.93;3.17;;;;;;;5.75;100.00;102613.75;5068715;28;20047;-76
2023/12/16 06:07:55;;;;;;;9.53;3.30;;;;;;;5.86;100.00;102629.91;5070342;28;20775;-76
2023/12/16 06:10:21;;;;;;;15.73;4.17;;;;;;;5.91;100.00;102629.66;5068985;28;20021;-78
2023/12/16 06:12:46;;;;;;;23.10;3.47;;;;;;;5.86;100.00;102627.28;5072713;28;20687;-78
2023/12/16 06:15:11;;;;;;;13.63;4.87;;;;;;;5.91;100.00;102624.38;5066876;28;20021;-77
2023/12/16 06:17:37;;;;;;;13.83;4.50;;;;;;;5.79;100.00;102612.66;5062199;28;20267;-78
2023/12/16 06:20:04;;;;;;;13.90;4.67;;;;;;;5.91;100.00;102619.91;5067362;28;20362;-78
2023/12/16 06:22:30;;;;;;;19.17;5.18;;;;;;;6.03;100.00;102622.84;5084562;28;20048;-76
2023/12/16 06:24:57;;;;;;;16.17;3.73;;;;;;;5.99;100.00;102610.69;5061754;28;20024;-78
2023/12/16 06:27:23;;;;;;;13.77;3.90;;;;;;;5.92;100.00;102595.13;5076342;28;20365;-78
2023/12/16 06:29:48;;;;;;;9.85;3.38;;;;;;;6.00;100.00;102593.88;5059674;28;20454;-79
2023/12/16 06:32:13;;;;;;;16.53;4.67;;;;;;;5.93;100.00;102593.31;5062900;28;20036;-78
2023/12/16 06:34:39;;;;;;;21.90;4.20;;;;;;;5.86;100.00;102589.31;5070707;28;20040;-78
2023/12/16 06:37:05;;;;;;;15.23;4.38;;;;;;;6.01;100.00;102592.91;5056852;28;20035;-77
2023/12/16 06:39:30;;;;;;;19.15;4.28;;;;;;;5.89;100.00;102574.06;5055554;28;20044;-77
2023/12/16 06:41:56;;;;;;;15.63;3.60;;;;;;;5.89;100.00;102571.41;5078962;28;20040;-78
2023/12/16 06:44:22;;;;;;;16.13;3.40;;;;;;;5.96;100.00;102584.38;5068676;28;20055;-78
2023/12/16 06:46:47;;;;;;;16.02;3.65;;;;;;;5.90;100.00;102577.59;5071625;28;20042;-79
2023/12/16 06:49:12;;;;;;;14.30;3.00;;;;;;;5.98;100.00;102582.50;5066943;28;20032;-78
2023/12/16 06:51:38;;;;;;;13.80;2.63;;;;;;;6.08;100.00;102578.34;5039810;28;20078;-78
2023/12/16 06:54:04;;;;;;;17.60;4.43;;;;;;;6.06;100.00;102564.31;5064255;28;20032;-78
2023/12/16 06:56:29;;;;;;;13.68;3.10;;;;;;;6.02;100.00;102562.81;5064933;28;20929;-78
2023/12/16 06:58:54;;;;;;;9.93;3.00;;;;;;;5.93;100.00;102545.59;5065634;28;20538;-75
2023/12/16 07:01:22;;;;;;;11.93;4.67;;;;;;;6.02;100.00;102552.22;5089364;28;20283;-78
2023/12/16 07:03:48;;;;;;;16.02;4.82;;;;;;;6.10;100.00;102571.16;5065369;28;20089;-78
2023/12/16 07:06:13;;;;;;;11.88;3.20;;;;;;;6.04;100.00;102551.19;5068291;28;20052;-78
2023/12/16 07:08:40;;;;;;;18.53;4.83;;;;;;;6.10;100.00;102556.09;5066260;28;20033;-79
2023/12/16 07:11:05;;;;;;;12.35;3.97;;;;;;;6.14;100.00;102551.50;5070445;28;20040;-79
2023/12/16 07:13:31;;;;;;;17.33;3.23;;;;;;;6.22;100.00;102540.44;5069693;28;20123;-77
2023/12/16 07:15:56;;;;;;;14.63;4.57;;;;;;;6.12;100.00;102526.84;5052689;28;20275;-78
2023/12/16 07:18:22;;;;;;;12.97;3.87;;;;;;;6.16;100.00;102523.09;5052842;28;20098;-79
2023/12/16 07:20:47;;;;;;;18.13;4.03;;;;;;;6.21;100.00;102528.97;5066264;28;20077;-77
2023/12/16 07:23:12;;;;;;;10.07;2.57;;;;;;;6.21;100.00;102513.06;5061065;28;20040;-79
2023/12/16 07:25:38;;;;;;;9.60;2.77;;;;;;;6.26;100.00;102508.31;5073160;28;20500;-78
2023/12/16 07:28:04;;;;;;;12.67;4.20;;;;;;;6.27;100.00;102510.00;5069801;28;20036;-78
2023/12/16 07:30:29;;;;;;;12.90;3.40;;;;;;;6.22;100.00;102512.09;5090254;28;20374;-76
2023/12/16 07:32:54;;;;;;;12.23;3.57;;;;;;;6.26;100.00;102492.41;5062175;28;20043;-76
2023/12/16 07:35:20;;;;;;;23.90;4.93;;;;;;;6.26;100.00;102515.44;5071141;28;20075;-76
2023/12/16 07:37:45;;;;;;;16.40;3.37;;;;;;;6.42;100.00;102515.38;5057225;28;20269;-77
2023/12/16 07:40:11;;;;;;;15.13;3.30;;;;;;;6.32;100.00;102483.22;5055761;28;20294;-78
2023/12/16 07:42:38;;;;;;;13.80;3.05;;;;;;;6.42;100.00;102504.75;5057778;28;20135;-77
2023/12/16 07:45:05;;;;;;;17.73;4.88;;;;;;;6.26;100.00;102473.84;5066127;28;20035;-78
2023/12/16 07:47:31;;;;;;;22.90;4.13;;;;;;;6.40;100.00;102493.38;5065397;28;20509;-77
2023/12/16 07:49:56;;;;;;;;;;;;;;;6.51;100.00;102497.09;5053939;28;20040;-78
2023/12/16 07:52:22;;;;;;;9.38;2.95;;;;;;;6.42;100.00;102502.97;5049322;28;19919;-78
2023/12/16 07:54:47;;;;;;;13.63;3.78;;;;;;;6.45;100.00;102524.00;5069248;28;20122;-78
2023/12/16 07:57:12;;;;;;;22.63;4.13;;;;;;;6.30;100.00;102524.94;5070352;28;20060;-78
2023/12/16 07:59:40;;;;;;;16.00;3.80;;;;;;;6.35;100.00;102549.38;5066908;28;20032;-78
2023/12/16 08:02:08;;;;;;;15.25;3.97;;;;;;;6.45;100.00;102571.75;5035817;28;20295;-77
2023/12/16 08:04:33;;;;;;;15.85;4.03;;;;;;;6.41;100.00;102556.94;5067511;28;20025;-77
2023/12/16 08:06:58;;;;;;;17.33;4.72;;;;;;;6.46;100.00;102549.59;5069365;28;20097;-79
2023/12/16 08:09:24;;;;;;;16.83;6.03;;;;;;;6.39;100.00;102540.28;5065355;28;20032;-77
2023/12/16 08:11:50;;;;;;;15.80;3.93;;;;;;;6.31;100.00;102548.69;5034824;28;20642;-75
2023/12/16 08:14:15;;;;;;;10.80;3.78;;;;;;;6.38;100.00;102572.22;5049374;28;20044;-78
2023/12/16 08:16:41;;;;;;;29.05;4.95;;;;;;;6.37;100.00;102578.44;5047936;28;20202;-77
2023/12/16 08:19:06;;;;;;;16.13;4.40;;;;;;;6.50;100.00;102605.97;5061301;28;20718;-78
2023/12/16 08:21:31;;;;;;;17.60;3.50;;;;;;;6.43;100.00;102600.16;5056321;28;20043;-76
2023/12/16 08:23:57;;;;;;;16.63;6.63;;;;;;;6.48;100.00;102615.81;5055631;28;20039;-79
2023/12/16 08:26:22;;;;;;;23.73;4.70;;;;;;;6.36;100.00;102614.75;5074881;28;20466;-76
2023/12/16 08:28:48;;;;;;;17.93;3.93;;;;;;;6.39;100.00;102641.13;5093048;28;20116;-77
2023/12/16 08:31:13;;;;;;;12.85;3.72;;;;;;;6.39;100.00;102657.03;5053666;28;20102;-78
2023/12/16 08:33:38;;;;;;;17.00;4.50;;;;;;;6.47;100.00;102688.44;5052769;28;20033;-78
2023/12/16 08:36:05;;;;;;;13.97;4.43;;;;;;;6.44;100.00;102688.56;5036146;28;20036;-77
2023/12/16 08:38:32;;;;;;;17.95;5.28;;;;;;;6.34;100.00;102706.81;5062668;28;20037;-78
2023/12/16 08:40:57;;;;;;;20.20;6.18;;;;;;;6.41;100.00;102739.19;5052466;28;20033;-81
2023/12/16 08:43:23;;;;;;;14.25;5.43;;;;;;;6.45;100.00;102748.69;5058995;28;20047;-78
2023/12/16 08:45:49;;;;;;;14.90;5.65;;;;;;;6.45;100.00;102764.59;5088852;28;20033;-76
2023/12/16 08:48:15;;;;;;;20.90;6.82;;;;;;;6.41;100.00;102755.09;5062671;28;20127;-75
2023/12/16 08:50:42;;;;;;;16.48;7.07;;;;;;;6.38;100.00;102748.16;5056404;28;20025;-78
2023/12/16 08:53:07;;;;;;;;;;;;;;;6.43;100.00;102775.28;5069575;28;20514;-79
2023/12/16 08:55:33;;;;;;;25.58;6.97;;;;;;;6.31;100.00;102773.34;5070717;28;19912;-77
2023/12/16 08:57:58;;;;;;;20.50;6.87;;;;;;;6.31;100.00;102782.13;5067765;28;20120;-77
2023/12/16 09:00:23;;;;;;;22.23;7.23;;;;;;;6.46;100.00;102798.16;5058199;28;20642;-77
2023/12/16 09:02:49;;;;;;;21.60;6.67;;;;;;;6.30;100.00;102764.53;5067436;28;20068;-76
2023/12/16 09:05:16;;;;;;;20.80;8.30;;;;;;;6.39;100.00;102788.81;5033978;28;20025;-77
2023/12/16 09:07:41;;;;;;;20.17;7.47;;;;;;;6.34;100.00;102782.00;5066112;28;20532;-78
2023/12/16 09:10:07;;;;;;;33.58;8.07;;;;;;;6.34;100.00;102786.41;5059633;28;20028;-78
2023/12/16 09:12:32;;;;;;;24.63;9.07;;;;;;;6.36;100.00;102786.34;5054613;28;20059;-77
2023/12/16 09:14:58;;;;;;;34.10;7.97;;;;;;;6.48;100.00;102802.41;5069713;28;20718;-78
2023/12/16 09:17:24;;;;;;;;;;;;;;;6.57;100.00;102808.16;5071587;28;20032;-78
2023/12/16 09:19:49;;;;;;;26.75;10.00;;;;;;;6.53;100.00;102797.75;5037342;28;19916;-77
2023/12/16 09:22:16;;;;;;;25.23;9.53;;;;;;;6.42;100.00;102788.66;5060464;28;20066;-77
2023/12/16 09:24:42;;;;;;;19.33;8.68;;;;;;;6.40;100.00;102802.00;5055324;28;20283;-78
2023/12/16 09:27:07;;;;;;;28.10;9.32;;;;;;;6.40;100.00;102814.41;5044540;28;20077;-76
2023/12/16 09:29:33;;;;;;;28.65;10.50;;;;;;;6.42;100.00;102813.41;5058657;28;20916;-76
2023/12/16 09:31:58;;;;;;;20.97;8.47;;;;;;;6.42;100.00;102820.50;5033182;28;20043;-78
2023/12/16 09:34:23;;;;;;;20.33;8.57;;;;;;;6.43;100.00;102815.09;5055015;28;20853;-75
2023/12/16 09:36:49;;;;;;;33.07;9.63;;;;;;;6.28;100.00;102814.16;5056534;28;20042;-79
2023/12/16 09:39:14;;;;;;;31.80;9.57;;;;;;;6.45;100.00;102831.78;5063316;28;20064;-78
2023/12/16 09:41:44;;;;;;;27.83;8.73;;;;;;;6.52;100.00;102821.69;5063673;28;20041;-78
2023/12/16 09:44:14;;;;;;;28.73;10.82;;;;;;;6.35;100.00;102812.03;5052721;28;20047;-79
2023/12/16 09:46:41;;;;;;;23.08;10.98;;;;;;;6.43;100.00;102814.25;5053221;28;20038;-79
2023/12/16 09:49:06;;;;;;;24.60;10.23;;;;;;;6.55;100.00;102826.81;5051193;28;20040;-77
2023/12/16 09:51:32;;;;;;;23.40;11.30;;;;;;;6.54;100.00;102814.50;5066749;28;20032;-78
2023/12/16 09:53:58;;;;;;;27.17;9.93;;;;;;;6.53;100.00;102811.00;5066147;28;20039;-77
2023/12/16 09:56:27;;;;;;;31.03;11.67;;;;;;;6.30;100.00;102803.47;5068518;28;20032;-79
2023/12/16 09:58:55;;;;;;;28.00;10.57;;;;;;;6.30;100.00;102796.34;5055442;28;20064;-77
2023/12/16 10:01:21;;;;;;;30.73;11.57;;;;;;;6.38;100.00;102822.47;5051652;28;20079;-77
2023/12/16 10:03:47;;;;;;;23.53;11.27;;;;;;;6.46;100.00;102822.91;5063539;28;20506;-77
2023/12/16 10:06:12;;;;;;;31.58;12.10;;;;;;;6.47;100.00;102810.50;5066327;28;20282;-77
2023/12/16 10:08:40;;;;;;;29.40;11.63;;;;;;;6.45;100.00;102805.25;5061938;28;20031;-77
2023/12/16 10:11:05;;;;;;;26.05;10.45;;;;;;;6.58;100.00;102804.56;5038107;28;20256;-77
2023/12/16 10:13:32;;;;;;;24.08;10.68;;;;;;;6.47;100.00;102789.25;5060921;28;20487;-77
2023/12/16 10:15:59;;;;;;;30.98;10.75;;;;;;;6.60;100.00;102784.09;5065827;28;20090;-78
2023/12/16 10:18:28;;;;;;;27.17;11.15;;;;;;;6.59;100.00;102785.91;5062275;28;20102;-76
2023/12/16 10:20:55;;;;;;;14.95;8.63;;;;;;;6.54;100.00;102780.00;5068081;28;20057;-77
2023/12/16 10:23:23;;;;;;;23.02;9.73;;;;;;;6.54;100.00;102775.56;5041087;28;20473;-77
2023/12/16 10:25:49;;;;;;;20.63;10.05;;;;;;;6.58;100.00;102784.22;5066398;28;20040;-77
2023/12/16 10:28:14;;;;;;;24.30;10.05;;;;;;;6.60;100.00;102781.44;5064283;28;20050;-77
2023/12/16 10:30:40;;;;;;;18.17;9.57;;;;;;;6.68;100.00;102780.06;5029456;28;20067;-77
2023/12/16 10:33:08;;;;;;;20.55;10.63;;;;;;;6.58;100.00;102762.97;5062149;28;20044;-77
2023/12/16 10:35:33;;;;;;;24.52;10.20;;;;;;;6.42;100.00;102762.97;5060534;28;20060;-78
2023/12/16 10:37:59;;;;;;;20.77;9.33;;;;;;;6.60;100.00;102773.50;5058529;28;20075;-78
2023/12/16 10:40:24;;;;;;;22.48;10.50;;;;;;;6.63;100.00;102755.59;5037247;28;20353;-77
2023/12/16 10:42:50;;;;;;;23.27;10.57;;;;;;;6.45;100.00;102744.22;5061225;28;20040;-77
2023/12/16 10:45:15;;;;;;;23.17;9.93;;;;;;;6.66;100.00;102750.09;5062968;28;20069;-76
2023/12/16 10:47:41;;;;;;;18.50;9.57;;;;;;;6.60;100.00;102746.94;5045071;28;20435;-78
2023/12/16 10:50:07;;;;;;;20.58;10.40;;;;;;;6.69;100.00;102749.94;5061762;28;20332;-78
2023/12/16 10:52:41;;;;;;;21.02;10.30;;;;;;;6.65;100.00;102742.22;5045405;28;20040;-77
2023/12/16 10:55:14;;;;;;;26.90;11.32;;;;;;;6.66;100.00;102750.09;5046783;28;20035;-77
2023/12/16 10:57:47;;;;;;;22.63;10.48;;;;;;;6.76;100.00;102743.31;5064943;28;20036;-77
2023/12/16 11:00:19;;;;;;;25.08;11.48;;;;;;;6.69;100.00;102741.13;5062612;28;20028;-77
2023/12/16 11:03:01;;;;;;;19.42;11.60;;;;;;;6.68;100.00;102727.00;5055112;28;20041;-77
2023/12/16 11:05:34;;;;;;;25.05;10.88;;;;;;;6.69;100.00;102736.66;5056586;28;20036;-77
2023/12/16 11:08:04;;;;;;;23.33;11.25;;;;;;;6.55;100.00;102715.34;5078988;28;20074;-77